Time;durP1;ratioP1;P1;durP2;ratioP2;P2;SDS_P1;SDS_P2;PMS_P1;PMS_P2;Temp;Humidity;BMP_temperature;BMP_pressure;BME280_temperature;BME280_humidity;BME280_pressure;Samples;Min_cycle;Max_cycle;Signal;HPM_P1;HPM_P2
2021/01/13 00:00:22;;;;;;;1.25;1.00;;;17.50;54.40;;;;;;5084010;28;20688;-63
2021/01/13 00:02:48;;;;;;;2.47;1.30;;;17.40;54.30;;;;;;5099248;28;20174;-62
2021/01/13 00:05:14;;;;;;;1.67;1.20;;;17.40;54.30;;;;;;5084111;28;20648;-62
2021/01/13 00:07:40;;;;;;;1.40;0.90;;;17.40;54.30;;;;;;5083640;28;20177;-62
2021/01/13 00:10:07;;;;;;;2.38;0.90;;;17.40;54.30;;;;;;5083740;28;20179;-63
2021/01/13 00:12:32;;;;;;;2.00;0.93;;;17.30;54.30;;;;;;5083629;28;20188;-64
2021/01/13 00:14:58;;;;;;;1.83;1.00;;;17.30;54.30;;;;;;5083350;28;20174;-63
2021/01/13 00:17:23;;;;;;;1.65;0.95;;;17.30;54.30;;;;;;5084575;28;20178;-65
2021/01/13 00:19:49;;;;;;;1.70;0.90;;;17.30;54.30;;;;;;5087205;28;20659;-64
2021/01/13 00:22:14;;;;;;;1.38;1.00;;;17.30;54.30;;;;;;5087124;28;20994;-64
2021/01/13 00:24:40;;;;;;;1.75;1.08;;;17.30;54.30;;;;;;5086884;28;20911;-64
2021/01/13 00:27:05;;;;;;;1.40;0.93;;;17.30;54.20;;;;;;5086842;28;20496;-64
2021/01/13 00:29:31;;;;;;;1.25;0.90;;;17.20;54.20;;;;;;5087090;28;20201;-64
2021/01/13 00:32:00;;;;;;;1.67;1.33;;;17.20;54.10;;;;;;5086736;28;20769;-63
2021/01/13 00:34:26;;;;;;;1.45;1.10;;;17.20;54.10;;;;;;5068673;28;20348;-64
2021/01/13 00:36:52;;;;;;;2.70;1.10;;;17.20;54.10;;;;;;5068818;28;20182;-65
2021/01/13 00:39:17;;;;;;;1.48;0.90;;;17.20;54.10;;;;;;5086379;28;20238;-63
2021/01/13 00:41:43;;;;;;;2.85;1.00;;;17.20;54.10;;;;;;5086811;28;20264;-64
2021/01/13 00:44:08;;;;;;;1.60;0.88;;;17.10;54.10;;;;;;5086771;28;20178;-64
2021/01/13 00:46:35;;;;;;;2.10;0.80;;;17.10;54.00;;;;;;5086598;28;20174;-63
2021/01/13 00:49:01;;;;;;;1.00;0.85;;;17.10;54.00;;;;;;5068801;28;20174;-65
2021/01/13 00:51:36;;;;;;;1.85;1.02;;;17.10;54.00;;;;;;5086606;28;20176;-63
2021/01/13 00:54:06;;;;;;;1.58;1.17;;;17.10;54.00;;;;;;5068593;28;20182;-64
2021/01/13 00:56:33;;;;;;;1.10;0.95;;;17.10;54.10;;;;;;5069198;28;20257;-63
2021/01/13 00:58:58;;;;;;;1.67;1.02;;;17.00;53.90;;;;;;5068487;28;20181;-66
2021/01/13 01:01:25;;;;;;;1.88;1.33;;;17.00;53.90;;;;;;5086367;28;20206;-65
2021/01/13 01:03:52;;;;;;;2.55;1.15;;;17.10;54.60;;;;;;5086458;28;20654;-63
2021/01/13 01:06:17;;;;;;;1.90;1.10;;;17.00;53.80;;;;;;5086639;28;20166;-63
2021/01/13 01:08:44;;;;;;;1.20;0.80;;;17.00;53.90;;;;;;5086355;28;20174;-65
2021/01/13 01:11:09;;;;;;;2.83;1.02;;;17.00;53.80;;;;;;5086117;28;20169;-64
2021/01/13 01:13:36;;;;;;;0.65;0.65;;;17.00;53.80;;;;;;5086206;28;20184;-64
2021/01/13 01:16:03;;;;;;;1.00;0.80;;;17.00;53.90;;;;;;5086020;28;20628;-64
2021/01/13 01:18:28;;;;;;;2.78;1.17;;;17.00;53.90;;;;;;5067866;28;20185;-64
2021/01/13 01:20:54;;;;;;;1.70;0.90;;;17.00;53.90;;;;;;5086211;28;20217;-66
2021/01/13 01:23:19;;;;;;;2.08;1.10;;;16.90;54.10;;;;;;5086117;28;20340;-66
2021/01/13 01:25:45;;;;;;;2.35;1.08;;;16.90;54.10;;;;;;5086245;28;21059;-66
2021/01/13 01:28:11;;;;;;;1.50;0.80;;;17.00;54.20;;;;;;5085547;28;20166;-66
2021/01/13 01:30:36;;;;;;;2.20;0.93;;;17.00;54.20;;;;;;5085212;28;20970;-67
2021/01/13 01:33:02;;;;;;;1.10;1.00;;;17.00;54.20;;;;;;5085643;28;20620;-65
2021/01/13 01:35:28;;;;;;;1.42;1.00;;;17.00;54.20;;;;;;5085835;28;20174;-65
2021/01/13 01:37:53;;;;;;;2.60;1.05;;;17.00;54.20;;;;;;5085656;28;20177;-64
2021/01/13 01:40:19;;;;;;;2.40;0.93;;;17.00;54.20;;;;;;5067558;28;20976;-65
2021/01/13 01:42:45;;;;;;;2.65;0.77;;;17.00;54.10;;;;;;5067397;28;20272;-66
2021/01/13 01:45:12;;;;;;;3.95;1.00;;;17.00;54.10;;;;;;5085581;28;20174;-66
2021/01/13 01:48:01;;;;;;;1.75;0.80;;;17.00;54.10;;;;;;5085414;28;21054;-65
2021/01/13 01:50:34;;;;;;;1.45;0.93;;;17.10;54.10;;;;;;5072262;28;20288;-65
2021/01/13 01:53:15;;;;;;;1.50;0.70;;;17.00;54.10;;;;;;5068064;28;20280;-65
2021/01/13 01:56:00;;;;;;;2.67;1.40;;;17.10;54.10;;;;;;5085337;28;20177;-65
2021/01/13 01:58:29;;;;;;;2.58;1.00;;;17.00;54.10;;;;;;5085252;28;20205;-66
2021/01/13 02:00:56;;;;;;;2.42;1.25;;;17.00;54.10;;;;;;5085287;28;20729;-65
2021/01/13 02:03:24;;;;;;;3.33;1.45;;;17.00;54.10;;;;;;5085176;28;20170;-61
2021/01/13 02:05:52;;;;;;;2.13;1.08;;;17.00;54.00;;;;;;5085117;28;20723;-63
2021/01/13 02:08:23;;;;;;;1.58;0.70;;;17.00;54.20;;;;;;5066957;28;20174;-62
2021/01/13 02:10:49;;;;;;;2.97;1.00;;;17.10;54.10;;;;;;5085372;28;20640;-64
2021/01/13 02:13:15;;;;;;;1.38;1.05;;;17.10;54.10;;;;;;5084872;28;20177;-64
2021/01/13 02:15:41;;;;;;;2.63;1.00;;;17.10;54.10;;;;;;5067235;28;20234;-63
2021/01/13 02:18:08;;;;;;;2.05;1.00;;;17.00;54.00;;;;;;5084880;28;20174;-63
2021/01/13 02:20:34;;;;;;;2.67;1.10;;;17.00;54.20;;;;;;5067612;28;20288;-64
2021/01/13 02:23:01;;;;;;;2.92;1.00;;;17.00;54.00;;;;;;5066637;28;20260;-64
2021/01/13 02:25:45;;;;;;;2.72;1.00;;;17.00;54.00;;;;;;5085248;28;20209;-62
2021/01/13 02:28:20;;;;;;;1.52;1.25;;;16.90;53.90;;;;;;5084826;28;20690;-64
2021/01/13 02:31:04;;;;;;;2.72;0.90;;;16.90;53.90;;;;;;5084694;28;20178;-62
2021/01/13 02:33:39;;;;;;;1.23;0.90;;;16.90;53.90;;;;;;5084707;28;20172;-61
2021/01/13 02:36:07;;;;;;;3.00;1.20;;;16.90;53.90;;;;;;5067771;28;20232;-62
2021/01/13 02:38:32;;;;;;;0.70;0.70;;;16.90;53.90;;;;;;5084950;28;20627;-63
2021/01/13 02:40:58;;;;;;;2.05;1.08;;;16.80;53.80;;;;;;5066391;28;20216;-63
2021/01/13 02:43:24;;;;;;;1.60;0.70;;;16.80;53.80;;;;;;5084482;28;20181;-63
2021/01/13 02:45:49;;;;;;;3.40;0.95;;;16.80;53.90;;;;;;5066567;28;20185;-62
2021/01/13 02:48:22;;;;;;;1.50;1.00;;;16.80;53.80;;;;;;5084625;28;20185;-64
2021/01/13 02:50:54;;;;;;;2.63;1.00;;;16.80;53.90;;;;;;5084803;28;20173;-63
2021/01/13 02:53:19;;;;;;;1.65;0.90;;;16.80;53.90;;;;;;5084034;28;20181;-62
2021/01/13 02:55:48;;;;;;;1.65;0.80;;;16.70;53.80;;;;;;5084188;28;20182;-63
2021/01/13 02:58:25;;;;;;;1.35;0.70;;;16.70;53.80;;;;;;5084280;28;20230;-64
2021/01/13 03:00:51;;;;;;;2.88;1.08;;;16.70;53.80;;;;;;5083964;28;20274;-62
2021/01/13 03:03:17;;;;;;;1.77;0.98;;;16.70;53.80;;;;;;5084074;28;20992;-62
2021/01/13 03:05:45;;;;;;;2.15;1.00;;;16.70;53.90;;;;;;5066457;28;20179;-62
2021/01/13 03:08:10;;;;;;;2.85;0.80;;;16.70;53.90;;;;;;5083915;28;20717;-63
2021/01/13 03:10:37;;;;;;;1.27;0.95;;;16.60;53.80;;;;;;5066318;28;20201;-63
2021/01/13 03:13:04;;;;;;;1.63;1.00;;;16.60;53.80;;;;;;5083828;28;20190;-65
2021/01/13 03:15:31;;;;;;;1.63;0.90;;;16.60;53.80;;;;;;5084011;28;20174;-63
2021/01/13 03:18:24;;;;;;;2.55;1.00;;;16.60;53.70;;;;;;5066067;28;20169;-62
2021/01/13 03:21:03;;;;;;;3.20;1.13;;;16.60;53.80;;;;;;5065726;28;20206;-65
2021/01/13 03:23:34;;;;;;;2.45;1.10;;;16.60;53.80;;;;;;5068079;28;20177;-63
2021/01/13 03:26:01;;;;;;;1.55;1.00;;;16.50;53.80;;;;;;5066310;28;20539;-63
2021/01/13 03:28:34;;;;;;;1.92;1.42;;;16.50;53.70;;;;;;5083898;28;20221;-62
2021/01/13 03:31:00;;;;;;;2.22;1.00;;;16.50;53.80;;;;;;5065403;28;20543;-62
2021/01/13 03:33:25;;;;;;;1.67;1.00;;;16.50;53.80;;;;;;5065941;28;20182;-61
2021/01/13 03:36:08;;;;;;;1.95;1.15;;;16.50;53.70;;;;;;5083761;28;20174;-63
2021/01/13 03:38:34;;;;;;;2.35;1.05;;;16.50;53.70;;;;;;5066665;28;20193;-64
2021/01/13 03:41:04;;;;;;;1.42;1.00;;;16.50;53.80;;;;;;5066157;28;20261;-64
2021/01/13 03:43:35;;;;;;;3.38;1.20;;;16.50;53.70;;;;;;5083578;28;20196;-64
2021/01/13 03:46:00;;;;;;;1.70;0.90;;;16.50;53.70;;;;;;5084012;28;20218;-63
2021/01/13 03:48:45;;;;;;;1.83;1.02;;;16.40;53.60;;;;;;5065823;28;20166;-63
2021/01/13 03:51:49;;;;;;;1.75;0.77;;;16.40;53.60;;;;;;5067294;28;20217;-64
2021/01/13 03:54:14;;;;;;;2.78;1.50;;;16.40;53.70;;;;;;5039914;28;20211;-66
2021/01/13 03:57:01;;;;;;;1.23;0.82;;;16.40;53.60;;;;;;5069766;28;20174;-62
2021/01/13 03:59:42;;;;;;;1.27;0.77;;;16.40;53.60;;;;;;5087548;28;20182;-62
2021/01/13 04:02:07;;;;;;;0.95;0.85;;;16.40;53.60;;;;;;5087361;28;20181;-62
2021/01/13 04:04:42;;;;;;;1.60;0.80;;;16.30;53.60;;;;;;5069382;28;20189;-64
2021/01/13 04:07:09;;;;;;;1.67;0.93;;;16.30;53.60;;;;;;5087340;28;20173;-63
2021/01/13 04:09:34;;;;;;;2.17;1.20;;;16.30;53.50;;;;;;5087609;28;20208;-62
2021/01/13 04:12:10;;;;;;;1.42;0.95;;;16.30;53.50;;;;;;5087274;28;20205;-62
2021/01/13 04:14:50;;;;;;;2.83;1.10;;;16.30;53.60;;;;;;5087554;28;20188;-62
2021/01/13 04:17:16;;;;;;;1.63;0.98;;;16.30;53.60;;;;;;5087198;28;20174;-62
2021/01/13 04:19:46;;;;;;;1.80;0.88;;;16.30;53.60;;;;;;5087259;28;20201;-62
2021/01/13 04:22:13;;;;;;;1.35;0.88;;;16.30;53.60;;;;;;5087179;28;20174;-63
2021/01/13 04:24:42;;;;;;;1.40;0.90;;;16.30;53.60;;;;;;5086962;28;20174;-63
2021/01/13 04:27:18;;;;;;;2.53;1.08;;;16.30;53.60;;;;;;5087122;28;20243;-65
2021/01/13 04:29:44;;;;;;;1.30;0.65;;;16.20;53.60;;;;;;5087281;28;20299;-64
2021/01/13 04:32:10;;;;;;;1.90;0.90;;;16.20;53.60;;;;;;5086876;28;20200;-62
2021/01/13 04:34:36;;;;;;;1.27;0.90;;;16.20;53.60;;;;;;5087123;28;20174;-62
2021/01/13 04:37:04;;;;;;;3.13;1.02;;;16.20;53.60;;;;;;5069108;28;20184;-63
2021/01/13 04:39:29;;;;;;;1.52;1.30;;;16.20;53.60;;;;;;5068655;28;20178;-63
2021/01/13 04:41:59;;;;;;;2.10;0.93;;;16.20;53.60;;;;;;5086634;28;20189;-62
2021/01/13 04:44:26;;;;;;;1.88;1.05;;;16.20;53.60;;;;;;5087185;28;20238;-63
2021/01/13 04:46:52;;;;;;;1.90;1.00;;;16.20;53.60;;;;;;5068449;28;20646;-65
2021/01/13 04:49:19;;;;;;;3.22;0.90;;;16.20;53.60;;;;;;5069198;28;20182;-63
2021/01/13 04:51:46;;;;;;;1.73;1.10;;;16.20;53.50;;;;;;5086756;28;20661;-63
2021/01/13 04:54:14;;;;;;;1.20;0.77;;;16.10;53.60;;;;;;5086607;28;20202;-62
2021/01/13 04:56:45;;;;;;;1.90;1.17;;;16.20;53.50;;;;;;5069027;28;20327;-62
2021/01/13 04:59:30;;;;;;;1.10;0.90;;;16.10;53.50;;;;;;5086670;28;20166;-64
2021/01/13 05:02:08;;;;;;;2.20;0.88;;;16.10;53.50;;;;;;5086204;28;21012;-63
2021/01/13 05:04:52;;;;;;;2.22;0.80;;;16.10;53.50;;;;;;5085345;28;20166;-63
2021/01/13 05:07:38;;;;;;;1.20;0.82;;;16.10;53.60;;;;;;5086412;28;20174;-63
2021/01/13 05:10:16;;;;;;;1.73;1.23;;;16.10;53.50;;;;;;5086044;28;20268;-63
2021/01/13 05:12:55;;;;;;;2.13;1.05;;;16.10;53.60;;;;;;5086248;28;20406;-63
2021/01/13 05:15:25;;;;;;;1.08;0.90;;;16.10;53.50;;;;;;5086167;28;20174;-65
2021/01/13 05:18:00;;;;;;;0.73;0.70;;;16.10;53.50;;;;;;5086091;28;20166;-63
2021/01/13 05:20:27;;;;;;;0.70;0.70;;;16.10;53.50;;;;;;5085738;28;20991;-62
2021/01/13 05:22:55;;;;;;;1.27;0.75;;;16.10;53.50;;;;;;5085966;28;20177;-64
2021/01/13 05:25:40;;;;;;;1.73;0.98;;;16.10;53.50;;;;;;5085736;28;20178;-62
2021/01/13 05:28:06;;;;;;;2.08;1.02;;;16.00;53.50;;;;;;5086043;28;20659;-62
2021/01/13 05:30:34;;;;;;;0.90;0.65;;;16.10;53.60;;;;;;5086070;28;20517;-62
2021/01/13 05:32:59;;;;;;;0.90;0.85;;;16.00;53.50;;;;;;5086012;28;20177;-63
2021/01/13 05:35:29;;;;;;;1.25;0.80;;;16.00;53.50;;;;;;5085721;28;20829;-63
2021/01/13 05:38:05;;;;;;;1.50;0.75;;;16.00;53.50;;;;;;5085866;28;20202;-62
2021/01/13 05:40:31;;;;;;;1.25;0.70;;;16.00;53.50;;;;;;5050747;28;21117;-64
2021/01/13 05:42:57;;;;;;;1.98;0.98;;;16.00;53.60;;;;;;5085687;28;20292;-64
2021/01/13 05:45:24;;;;;;;1.40;0.90;;;16.00;53.50;;;;;;5067620;28;20270;-64
2021/01/13 05:47:55;;;;;;;2.15;0.70;;;16.00;53.40;;;;;;5085912;28;20234;-64
2021/01/13 05:50:24;;;;;;;1.10;0.85;;;15.90;53.50;;;;;;5085490;28;20174;-64
2021/01/13 05:52:55;;;;;;;0.70;0.70;;;16.00;53.40;;;;;;5085466;28;20227;-65
2021/01/13 05:55:21;;;;;;;2.60;1.00;;;16.00;53.50;;;;;;5085228;28;20236;-64
2021/01/13 05:58:00;;;;;;;1.90;1.27;;;15.90;53.50;;;;;;5085325;28;20240;-64
2021/01/13 06:00:27;;;;;;;2.00;1.00;;;15.90;53.60;;;;;;5084945;28;20197;-63
2021/01/13 06:03:11;;;;;;;2.25;0.98;;;16.00;53.50;;;;;;5085341;28;20200;-63
2021/01/13 06:05:50;;;;;;;1.80;0.70;;;16.00;53.60;;;;;;5085098;28;20655;-64
2021/01/13 06:08:16;;;;;;;1.67;0.63;;;16.20;53.60;;;;;;5067934;28;20917;-63
2021/01/13 06:10:42;;;;;;;1.08;0.82;;;16.30;53.40;;;;;;5085080;28;20204;-64
2021/01/13 06:13:07;;;;;;;1.10;0.75;;;16.60;53.30;;;;;;5066964;28;20178;-64
2021/01/13 06:15:33;;;;;;;2.20;0.93;;;16.80;53.00;;;;;;5066221;28;20260;-64
2021/01/13 06:18:00;;;;;;;0.80;0.73;;;17.10;52.50;;;;;;5067210;28;20538;-63
2021/01/13 06:20:27;;;;;;;1.73;0.88;;;17.50;51.90;;;;;;5067144;28;20270;-63
2021/01/13 06:22:53;;;;;;;1.10;0.80;;;17.80;51.20;;;;;;5084825;28;20537;-64
2021/01/13 06:25:22;;;;;;;1.27;0.68;;;18.10;50.80;;;;;;5085075;28;20189;-65
2021/01/13 06:27:57;;;;;;;0.60;0.60;;;18.30;50.40;;;;;;5084773;28;20689;-63
2021/01/13 06:31:02;;;;;;;2.38;0.88;;;18.50;50.00;;;;;;5084982;28;20197;-64
2021/01/13 06:34:07;;;;;;;0.88;0.60;;;18.60;49.90;;;;;;5072144;28;20241;-64
2021/01/13 06:37:01;;;;;;;1.10;0.80;;;18.60;49.80;;;;;;5066634;28;20188;-63
2021/01/13 06:39:26;;;;;;;1.15;0.50;;;18.70;49.60;;;;;;5084551;28;20174;-64
2021/01/13 06:41:52;;;;;;;1.08;0.70;;;18.70;49.60;;;;;;5050093;28;20251;-63
2021/01/13 06:44:18;;;;;;;0.80;0.70;;;18.70;49.80;;;;;;5084780;28;20209;-64
2021/01/13 06:46:44;;;;;;;1.10;0.70;;;18.70;49.70;;;;;;5084689;28;20166;-64
2021/01/13 06:49:14;;;;;;;1.45;0.60;;;18.70;49.80;;;;;;5084610;28;20180;-64
2021/01/13 06:51:44;;;;;;;0.95;0.77;;;18.70;49.90;;;;;;5066697;28;20202;-62
2021/01/13 06:54:14;;;;;;;1.08;0.60;;;18.60;49.90;;;;;;5084411;28;20169;-64
2021/01/13 06:56:55;;;;;;;0.80;0.77;;;18.70;50.00;;;;;;5084217;28;20174;-63
2021/01/13 06:59:22;;;;;;;2.00;0.68;;;18.70;50.00;;;;;;5084300;28;20526;-63
2021/01/13 07:01:55;;;;;;;1.52;0.70;;;18.70;50.00;;;;;;5066514;28;20201;-62
2021/01/13 07:04:21;;;;;;;1.52;0.70;;;18.60;50.00;;;;;;5084475;28;20174;-64
2021/01/13 07:07:05;;;;;;;1.30;0.68;;;18.60;50.10;;;;;;5083999;28;20209;-63
2021/01/13 07:09:44;;;;;;;1.65;0.75;;;18.50;50.20;;;;;;5066627;28;20601;-64
2021/01/13 07:12:11;;;;;;;1.35;0.60;;;18.30;50.40;;;;;;5084555;28;20252;-63
2021/01/13 07:14:38;;;;;;;1.95;0.82;;;18.20;50.70;;;;;;5084304;28;20173;-64
2021/01/13 07:17:06;;;;;;;2.60;0.80;;;18.10;50.80;;;;;;5084599;28;20777;-64
2021/01/13 07:19:32;;;;;;;1.13;0.70;;;18.10;51.00;;;;;;5066066;28;20365;-65
2021/01/13 07:21:58;;;;;;;2.53;0.70;;;18.00;51.00;;;;;;5065638;28;20191;-64
2021/01/13 07:24:26;;;;;;;0.88;0.70;;;18.00;51.10;;;;;;5066132;28;20178;-63
2021/01/13 07:26:51;;;;;;;0.88;0.70;;;18.00;51.10;;;;;;5066377;28;20188;-64
2021/01/13 07:29:17;;;;;;;1.98;0.95;;;18.00;51.10;;;;;;5070103;28;20697;-64
2021/01/13 07:31:42;;;;;;;0.75;0.45;;;17.90;51.20;;;;;;5070027;28;20189;-62
2021/01/13 07:34:13;;;;;;;1.23;0.70;;;17.80;51.30;;;;;;5070295;28;20169;-62
2021/01/13 07:36:39;;;;;;;1.42;0.80;;;17.80;52.00;;;;;;5069924;28;20352;-64
2021/01/13 07:39:06;;;;;;;2.30;0.82;;;17.80;51.30;;;;;;5088210;28;21013;-63
2021/01/13 07:42:17;;;;;;;0.65;0.60;;;17.80;51.40;;;;;;5069931;28;20201;-64
2021/01/13 07:44:44;;;;;;;0.80;0.60;;;17.90;51.30;;;;;;5056668;28;20678;-65
2021/01/13 07:47:29;;;;;;;1.45;0.70;;;17.90;51.20;;;;;;5069983;28;20165;-64
2021/01/13 07:50:10;;;;;;;1.83;0.90;;;18.00;51.10;;;;;;5070174;28;20178;-64
2021/01/13 07:52:41;;;;;;;0.90;0.80;;;18.00;51.00;;;;;;5087283;28;20541;-60
2021/01/13 07:55:14;;;;;;;2.10;1.10;;;18.00;51.00;;;;;;5087529;28;20170;-63
2021/01/13 07:57:48;;;;;;;2.05;1.08;;;18.00;51.40;;;;;;5069799;28;20243;-62
2021/01/13 08:00:24;;;;;;;2.83;1.05;;;18.00;51.70;;;;;;5070256;28;20258;-63
2021/01/13 08:03:17;;;;;;;2.65;1.27;;;17.90;51.50;;;;;;5069496;28;20177;-67
2021/01/13 08:06:16;;;;;;;2.45;1.17;;;17.90;52.00;;;;;;5087357;28;20207;-67
2021/01/13 08:09:04;;;;;;;3.35;1.30;;;17.80;52.40;;;;;;5087363;28;20181;-67
2021/01/13 08:11:47;;;;;;;3.17;1.58;;;17.70;52.40;;;;;;5069844;28;20177;-68
2021/01/13 08:14:31;;;;;;;3.28;1.10;;;17.70;52.70;;;;;;5087026;28;20401;-68
2021/01/13 08:17:03;;;;;;;3.05;1.15;;;17.70;52.70;;;;;;5086935;28;20174;-68
2021/01/13 08:19:49;;;;;;;2.42;1.08;;;17.70;52.70;;;;;;5087244;28;20277;-64
2021/01/13 08:22:19;;;;;;;1.55;1.10;;;17.70;52.80;;;;;;5069165;28;20224;-62
2021/01/13 08:24:45;;;;;;;5.18;1.27;;;17.70;52.90;;;;;;5087777;28;20727;-65
2021/01/13 08:27:11;;;;;;;2.67;1.10;;;17.80;53.00;;;;;;5057484;28;20178;-65
2021/01/13 08:29:38;;;;;;;3.58;1.17;;;17.80;52.90;;;;;;5069141;28;20204;-66
2021/01/13 08:32:08;;;;;;;3.72;1.40;;;17.70;53.00;;;;;;5087186;28;20176;-65
2021/01/13 08:34:39;;;;;;;2.42;1.38;;;17.70;52.70;;;;;;5086889;28;20224;-66
2021/01/13 08:37:05;;;;;;;3.67;1.17;;;17.60;52.70;;;;;;5068794;28;20189;-65
2021/01/13 08:39:31;;;;;;;3.97;1.33;;;17.60;53.00;;;;;;5086603;28;20217;-66
2021/01/13 08:42:17;;;;;;;2.38;0.98;;;17.50;53.10;;;;;;5086646;28;20186;-65
2021/01/13 08:44:43;;;;;;;2.90;1.38;;;17.40;53.30;;;;;;5072252;28;20228;-66
2021/01/13 08:47:09;;;;;;;4.50;2.08;;;17.40;53.40;;;;;;5086656;28;20201;-64
2021/01/13 08:49:35;;;;;;;2.85;1.10;;;17.40;53.50;;;;;;5086341;28;20174;-66
2021/01/13 08:52:17;;;;;;;2.60;1.30;;;17.50;53.40;;;;;;5086582;28;20188;-65
2021/01/13 08:54:46;;;;;;;1.60;1.00;;;17.50;53.30;;;;;;5086656;28;20190;-65
2021/01/13 08:57:12;;;;;;;2.28;1.17;;;17.60;53.20;;;;;;5086368;28;20177;-66
2021/01/13 08:59:41;;;;;;;3.25;1.27;;;17.60;53.10;;;;;;5086725;28;20181;-65
2021/01/13 09:02:18;;;;;;;2.55;1.15;;;17.70;53.00;;;;;;5086334;28;20178;-65
2021/01/13 09:04:59;;;;;;;1.85;1.17;;;17.70;53.00;;;;;;5086137;28;20563;-65
2021/01/13 09:07:29;;;;;;;2.42;1.10;;;17.70;52.90;;;;;;5086444;28;20262;-65
2021/01/13 09:10:08;;;;;;;3.15;1.38;;;17.60;53.00;;;;;;5068476;28;20169;-64
2021/01/13 09:12:43;;;;;;;2.72;1.25;;;17.50;53.10;;;;;;5086306;28;20181;-66
2021/01/13 09:15:09;;;;;;;4.90;1.42;;;17.50;53.10;;;;;;5068329;28;20177;-64
2021/01/13 09:17:38;;;;;;;4.30;1.33;;;17.50;53.40;;;;;;5086041;28;20185;-64
2021/01/13 09:20:15;;;;;;;5.22;1.25;;;17.50;53.30;;;;;;5085738;28;20198;-65
2021/01/13 09:22:43;;;;;;;3.92;1.00;;;17.60;53.20;;;;;;5068618;28;20174;-65
2021/01/13 09:25:15;;;;;;;2.10;0.85;;;17.70;53.10;;;;;;5085166;28;20185;-66
2021/01/13 09:27:44;;;;;;;2.53;1.30;;;17.80;53.10;;;;;;5083441;28;20181;-66
2021/01/13 09:30:26;;;;;;;2.33;0.90;;;17.80;52.90;;;;;;5067880;28;20288;-65
2021/01/13 09:32:52;;;;;;;3.10;1.27;;;17.80;53.00;;;;;;5069523;28;20174;-65
2021/01/13 09:35:22;;;;;;;2.72;1.10;;;17.90;52.90;;;;;;5067960;28;20178;-65
2021/01/13 09:37:55;;;;;;;3.28;1.30;;;17.90;53.00;;;;;;5085739;28;20256;-64
2021/01/13 09:40:21;;;;;;;2.83;1.42;;;17.80;53.00;;;;;;5085050;28;20686;-65
2021/01/13 09:42:54;;;;;;;4.22;1.48;;;17.80;53.00;;;;;;5085547;28;20209;-65
2021/01/13 09:45:20;;;;;;;1.35;1.13;;;17.80;53.00;;;;;;5052091;28;20184;-66
2021/01/13 09:47:45;;;;;;;3.50;1.48;;;17.80;53.10;;;;;;5085498;28;20174;-65
2021/01/13 09:50:13;;;;;;;4.72;1.50;;;17.80;53.10;;;;;;5066180;28;20280;-65
2021/01/13 09:52:47;;;;;;;2.97;1.30;;;17.80;53.20;;;;;;5085390;28;20262;-66
2021/01/13 09:55:13;;;;;;;2.97;1.23;;;17.90;53.60;;;;;;5085749;28;21168;-63
2021/01/13 09:57:39;;;;;;;3.17;1.40;;;17.80;53.00;;;;;;5085207;28;20170;-63
2021/01/13 10:00:09;;;;;;;3.97;1.30;;;17.80;53.00;;;;;;5067316;28;20213;-65
2021/01/13 10:02:35;;;;;;;1.83;1.17;;;17.80;53.20;;;;;;5084905;28;20178;-65
2021/01/13 10:05:00;;;;;;;2.95;1.02;;;17.70;53.20;;;;;;5084817;28;20188;-65
2021/01/13 10:07:30;;;;;;;2.45;1.20;;;17.70;53.30;;;;;;5067079;28;20178;-65
2021/01/13 10:09:57;;;;;;;2.63;1.45;;;17.60;53.40;;;;;;5067230;28;20174;-66
2021/01/13 10:12:50;;;;;;;3.45;1.10;;;17.60;53.30;;;;;;5085466;28;20654;-66
2021/01/13 10:15:16;;;;;;;3.70;1.00;;;17.60;53.40;;;;;;5066606;28;20190;-65
2021/01/13 10:17:42;;;;;;;2.35;1.20;;;17.60;53.30;;;;;;5084798;28;20181;-65
2021/01/13 10:20:22;;;;;;;4.03;1.40;;;17.60;53.30;;;;;;5084831;28;20201;-63
2021/01/13 10:22:48;;;;;;;3.90;1.23;;;17.70;53.30;;;;;;5085902;28;20250;-65
2021/01/13 10:25:30;;;;;;;2.50;1.40;;;17.60;53.40;;;;;;5084454;28;20623;-67
2021/01/13 10:27:56;;;;;;;2.38;1.33;;;17.60;53.60;;;;;;5066647;28;20280;-67
2021/01/13 10:30:22;;;;;;;2.15;1.15;;;17.60;53.70;;;;;;5049942;28;20309;-67
2021/01/13 10:32:55;;;;;;;3.28;1.40;;;17.60;53.80;;;;;;5084634;28;20180;-67
2021/01/13 10:35:21;;;;;;;2.05;1.30;;;17.60;53.80;;;;;;5084695;28;20575;-67
2021/01/13 10:37:54;;;;;;;2.30;1.17;;;17.50;53.80;;;;;;5084592;28;20188;-64
2021/01/13 10:40:20;;;;;;;5.00;1.58;;;17.60;54.10;;;;;;5084674;28;20338;-66
2021/01/13 10:42:51;;;;;;;5.32;1.38;;;17.50;53.90;;;;;;5084619;28;20169;-64
2021/01/13 10:45:17;;;;;;;3.20;1.35;;;17.50;53.90;;;;;;5067197;28;20177;-66
2021/01/13 10:47:52;;;;;;;3.45;1.30;;;17.50;53.90;;;;;;5084469;28;20170;-65
2021/01/13 10:50:18;;;;;;;2.40;1.35;;;17.50;53.90;;;;;;5084346;28;20276;-61
2021/01/13 10:52:45;;;;;;;3.00;1.60;;;17.50;54.00;;;;;;5066338;28;20276;-66
2021/01/13 10:55:11;;;;;;;2.92;1.30;;;17.40;54.10;;;;;;5066378;28;20181;-66
2021/01/13 10:57:36;;;;;;;3.88;1.25;;;17.50;54.10;;;;;;5049821;28;20177;-65
2021/01/13 11:00:06;;;;;;;4.22;1.52;;;17.50;53.90;;;;;;5084355;28;20209;-65
2021/01/13 11:02:32;;;;;;;4.15;1.45;;;17.40;53.90;;;;;;5049801;28;20186;-65
2021/01/13 11:05:01;;;;;;;2.05;1.13;;;17.50;53.90;;;;;;5066252;28;20589;-67
2021/01/13 11:07:40;;;;;;;2.65;1.30;;;17.60;53.90;;;;;;5083967;28;20203;-66
2021/01/13 11:10:08;;;;;;;3.85;1.33;;;18.00;53.60;;;;;;5084623;28;20188;-66
2021/01/13 11:12:34;;;;;;;2.42;1.40;;;18.00;53.20;;;;;;5049757;28;20261;-67
2021/01/13 11:15:00;;;;;;;3.20;1.35;;;18.30;52.90;;;;;;5083589;28;20264;-67
2021/01/13 11:17:26;;;;;;;2.75;1.23;;;18.60;52.50;;;;;;5048909;28;20169;-67
2021/01/13 11:19:52;;;;;;;2.90;1.20;;;18.80;52.00;;;;;;5065399;28;20193;-67
2021/01/13 11:22:18;;;;;;;2.15;1.20;;;19.10;51.60;;;;;;5083373;28;20266;-66
2021/01/13 11:24:47;;;;;;;2.97;1.60;;;19.30;51.30;;;;;;5083363;28;20261;-68
2021/01/13 11:27:14;;;;;;;2.25;1.10;;;19.60;50.90;;;;;;5083148;28;20174;-67
2021/01/13 11:29:41;;;;;;;2.50;1.02;;;19.70;50.50;;;;;;5083331;28;20196;-67
2021/01/13 11:32:08;;;;;;;1.95;1.08;;;19.80;50.40;;;;;;5065199;28;20177;-67
2021/01/13 11:34:33;;;;;;;2.05;1.35;;;19.80;50.40;;;;;;5064926;28;20174;-65
2021/01/13 11:37:08;;;;;;;1.77;0.90;;;19.80;50.40;;;;;;5082678;28;20176;-66
2021/01/13 11:39:42;;;;;;;1.77;0.90;;;19.70;50.50;;;;;;5083175;28;20537;-66
2021/01/13 11:42:28;;;;;;;2.15;0.93;;;19.70;50.60;;;;;;5048960;28;20635;-66
2021/01/13 11:45:15;;;;;;;2.50;0.98;;;19.70;50.70;;;;;;5065979;28;20228;-66
2021/01/13 11:47:44;;;;;;;2.55;1.23;;;19.70;50.80;;;;;;5068566;28;20223;-64
2021/01/13 11:50:12;;;;;;;2.70;0.88;;;19.60;50.80;;;;;;5083850;28;20286;-65
2021/01/13 11:52:41;;;;;;;2.05;1.10;;;19.60;50.80;;;;;;5083952;28;20173;-64
2021/01/13 11:55:07;;;;;;;2.78;1.02;;;19.50;50.90;;;;;;5066145;28;20177;-65
2021/01/13 11:57:35;;;;;;;2.03;0.98;;;19.50;51.00;;;;;;5065930;28;20186;-67
2021/01/13 12:00:18;;;;;;;1.42;1.08;;;19.50;51.00;;;;;;5083873;28;20297;-64
2021/01/13 12:02:47;;;;;;;4.38;1.50;;;19.40;51.00;;;;;;5083665;28;20565;-67
2021/01/13 12:05:32;;;;;;;1.75;1.05;;;19.50;51.10;;;;;;5083711;28;20170;-70
2021/01/13 12:07:59;;;;;;;3.60;1.10;;;19.50;51.10;;;;;;5083418;28;20177;-70
2021/01/13 12:10:29;;;;;;;3.10;1.10;;;19.40;51.10;;;;;;5083535;28;20167;-69
2021/01/13 12:13:11;;;;;;;3.40;1.17;;;19.40;51.30;;;;;;5066247;28;20693;-70
2021/01/13 12:15:48;;;;;;;2.13;1.10;;;19.50;51.10;;;;;;5087538;28;20542;-69
2021/01/13 12:18:18;;;;;;;1.73;1.00;;;19.50;51.10;;;;;;5069546;28;20174;-68
2021/01/13 12:20:44;;;;;;;1.85;1.00;;;19.40;51.10;;;;;;5069573;28;20671;-70
2021/01/13 12:23:35;;;;;;;3.47;1.23;;;19.40;51.30;;;;;;5087284;28;20221;-69
2021/01/13 12:26:36;;;;;;;1.42;0.80;;;19.30;51.30;;;;;;5087174;28;20880;-69
2021/01/13 12:29:01;;;;;;;4.10;1.02;;;19.20;51.50;;;;;;5087085;28;20201;-66
2021/01/13 12:31:42;;;;;;;2.35;1.30;;;19.20;51.70;;;;;;5087183;28;20192;-65
2021/01/13 12:34:14;;;;;;;2.80;1.10;;;19.20;51.60;;;;;;5086861;28;20170;-65
2021/01/13 12:36:41;;;;;;;1.63;0.82;;;19.20;51.50;;;;;;5086600;28;20173;-65
2021/01/13 12:39:07;;;;;;;3.17;0.82;;;19.20;51.50;;;;;;5086918;28;20556;-65
2021/01/13 12:41:34;;;;;;;1.45;0.80;;;19.30;51.50;;;;;;5068859;28;20721;-64
2021/01/13 12:44:09;;;;;;;3.30;0.90;;;19.30;51.50;;;;;;5068591;28;20197;-64
2021/01/13 12:46:46;;;;;;;2.25;1.02;;;19.30;51.50;;;;;;5068695;28;20597;-66
2021/01/13 12:49:12;;;;;;;3.45;1.13;;;19.30;51.40;;;;;;5086643;28;20165;-68
2021/01/13 12:51:37;;;;;;;2.08;0.90;;;19.30;51.50;;;;;;5052237;28;20472;-65
2021/01/13 12:54:03;;;;;;;1.52;0.82;;;19.20;51.50;;;;;;5087161;28;20272;-65
2021/01/13 12:56:30;;;;;;;2.75;0.82;;;19.10;51.60;;;;;;5086969;28;20174;-66
2021/01/13 12:58:56;;;;;;;4.32;1.00;;;19.10;51.70;;;;;;5051753;28;20536;-65
2021/01/13 13:01:22;;;;;;;3.20;1.10;;;19.00;51.80;;;;;;5086303;28;20201;-65
2021/01/13 13:03:48;;;;;;;2.97;1.00;;;19.00;52.00;;;;;;5086718;28;20197;-67
2021/01/13 13:06:23;;;;;;;1.42;0.80;;;18.90;52.10;;;;;;5086342;28;20209;-66